Time;durP1;ratioP1;P1;durP2;ratioP2;P2;SDS_P1;SDS_P2;PMS_P1;PMS_P2;Temp;Humidity;BMP_temperature;BMP_pressure;BME280_temperature;BME280_humidity;BME280_pressure;Samples;Min_cycle;Max_cycle;Signal;HPM_P1;HPM_P2
2021/07/31 00:00:18;;;;;;;2.60;2.10;;;21.50;94.00;;;;;;4806122;29;20294;-70
2021/07/31 00:02:47;;;;;;;2.43;2.00;;;21.50;94.00;;;;;;4822925;29;20239;-70
2021/07/31 00:05:13;;;;;;;2.00;1.80;;;21.40;93.90;;;;;;4813654;29;20884;-71
2021/07/31 00:07:42;;;;;;;2.80;1.80;;;21.40;93.90;;;;;;4841725;29;20455;-72
2021/07/31 00:10:09;;;;;;;5.27;2.10;;;21.40;93.90;;;;;;4844784;29;20464;-69
2021/07/31 00:12:35;;;;;;;1.97;1.77;;;21.40;93.90;;;;;;4833978;29;20476;-71
2021/07/31 00:15:00;;;;;;;4.73;1.53;;;21.30;93.80;;;;;;4820381;29;20449;-71
2021/07/31 00:17:26;;;;;;;1.93;1.83;;;21.20;93.80;;;;;;4805775;29;20232;-71
2021/07/31 00:19:51;;;;;;;4.47;1.70;;;21.10;93.90;;;;;;4804636;29;20228;-71
2021/07/31 00:22:17;;;;;;;2.80;1.73;;;21.00;93.90;;;;;;4824395;29;20224;-71
2021/07/31 00:24:43;;;;;;;2.20;1.73;;;21.00;94.20;;;;;;4826881;29;20227;-71
2021/07/31 00:27:08;;;;;;;2.23;1.30;;;20.90;93.70;;;;;;4817343;29;20251;-70
2021/07/31 00:29:34;;;;;;;2.80;1.80;;;20.80;93.70;;;;;;4803316;29;20227;-71
2021/07/31 00:32:00;;;;;;;2.17;1.60;;;20.70;93.60;;;;;;4812985;29;20235;-71
2021/07/31 00:34:25;;;;;;;4.47;1.83;;;20.70;93.70;;;;;;4806217;29;20239;-71
2021/07/31 00:36:51;;;;;;;1.50;1.33;;;20.60;93.60;;;;;;4805686;29;20239;-71
2021/07/31 00:39:16;;;;;;;2.97;1.83;;;20.50;93.60;;;;;;4808021;29;20223;-71
2021/07/31 00:41:42;;;;;;;3.70;1.60;;;20.50;93.60;;;;;;4805756;29;20704;-71
2021/07/31 00:44:08;;;;;;;1.77;1.67;;;20.40;93.60;;;;;;4805366;29;20291;-70
2021/07/31 00:46:34;;;;;;;3.80;1.67;;;20.30;93.60;;;;;;4805769;29;20219;-71
2021/07/31 00:49:00;;;;;;;2.87;1.77;;;20.20;93.60;;;;;;4804592;29;20303;-71
2021/07/31 00:51:29;;;;;;;2.17;1.73;;;20.20;93.70;;;;;;4818326;29;20541;-71
2021/07/31 00:53:55;;;;;;;1.70;1.60;;;20.20;93.80;;;;;;4838401;29;20565;-71
2021/07/31 00:56:21;;;;;;;2.53;1.80;;;20.20;93.80;;;;;;4823343;29;20240;-71
2021/07/31 00:58:47;;;;;;;2.77;1.80;;;20.20;93.80;;;;;;4818003;29;20472;-71
2021/07/31 01:01:15;;;;;;;2.60;1.60;;;20.20;93.70;;;;;;4821770;29;20770;-71
2021/07/31 01:03:42;;;;;;;1.97;1.80;;;20.20;93.60;;;;;;4812167;29;20547;-70
2021/07/31 01:06:08;;;;;;;3.70;1.90;;;20.20;93.70;;;;;;4822815;29;20458;-70
2021/07/31 01:08:34;;;;;;;1.47;1.37;;;20.10;93.70;;;;;;4817815;29;20315;-71
2021/07/31 01:11:03;;;;;;;3.00;1.77;;;20.10;93.70;;;;;;4813257;29;20824;-70
2021/07/31 01:13:31;;;;;;;3.10;2.07;;;20.00;93.70;;;;;;4836646;29;20481;-71
2021/07/31 01:16:06;;;;;;;1.80;1.70;;;19.90;93.70;;;;;;4841475;29;21011;-71
2021/07/31 01:18:34;;;;;;;2.20;1.90;;;19.90;93.80;;;;;;4810358;29;21003;-70
2021/07/31 01:21:02;;;;;;;1.50;1.40;;;19.80;93.90;;;;;;4806842;29;20943;-70
2021/07/31 01:23:28;;;;;;;3.63;1.97;;;19.80;93.90;;;;;;4833638;29;20517;-70
2021/07/31 01:25:55;;;;;;;1.50;1.40;;;19.70;94.20;;;;;;4818439;29;20714;-70
2021/07/31 01:28:22;;;;;;;2.67;1.50;;;19.70;93.90;;;;;;4814438;29;20846;-69
2021/07/31 01:30:48;;;;;;;2.60;1.80;;;19.70;93.90;;;;;;4799195;29;21058;-70
2021/07/31 01:33:14;;;;;;;2.93;1.50;;;19.60;93.90;;;;;;4804825;29;20472;-70
2021/07/31 01:35:40;;;;;;;4.20;1.93;;;19.60;94.30;;;;;;4808835;29;20727;-70
2021/07/31 01:38:26;;;;;;;1.53;1.43;;;19.50;94.00;;;;;;4819569;29;20227;-70
2021/07/31 01:40:52;;;;;;;2.57;2.33;;;19.30;94.10;;;;;;4806104;29;20473;-68
2021/07/31 01:43:17;;;;;;;4.13;1.63;;;19.20;94.30;;;;;;4821540;29;20259;-70
2021/07/31 01:45:43;;;;;;;2.80;1.50;;;19.20;94.60;;;;;;4807607;29;20223;-71
2021/07/31 01:48:09;;;;;;;4.87;2.17;;;19.20;94.40;;;;;;4806342;29;20228;-70
2021/07/31 01:50:34;;;;;;;3.20;1.47;;;19.10;94.40;;;;;;4823598;29;20219;-70
2021/07/31 01:53:01;;;;;;;2.23;1.57;;;19.00;94.40;;;;;;4818965;29;20250;-69
2021/07/31 01:55:26;;;;;;;3.20;1.70;;;19.00;94.60;;;;;;4808145;29;20557;-69
2021/07/31 01:57:58;;;;;;;1.87;1.70;;;18.90;94.70;;;;;;4825594;29;20223;-70
2021/07/31 02:00:37;;;;;;;2.13;1.80;;;18.80;94.70;;;;;;4812632;29;20520;-69
2021/07/31 02:03:08;;;;;;;1.80;1.57;;;18.80;94.90;;;;;;4806362;29;20464;-70
2021/07/31 02:05:43;;;;;;;4.70;1.60;;;18.70;94.90;;;;;;4823063;29;20476;-70
2021/07/31 02:08:08;;;;;;;1.67;1.57;;;18.70;95.00;;;;;;4826310;29;20460;-70
2021/07/31 02:10:48;;;;;;;3.13;1.70;;;18.60;95.00;;;;;;4813542;29;20298;-71
2021/07/31 02:13:14;;;;;;;2.20;1.27;;;18.60;95.10;;;;;;4808309;29;20533;-69
2021/07/31 02:15:41;;;;;;;2.03;1.60;;;18.50;95.20;;;;;;4829697;29;20565;-71
2021/07/31 02:18:08;;;;;;;1.90;1.80;;;18.40;95.30;;;;;;4821427;29;20516;-68
2021/07/31 02:20:34;;;;;;;1.67;1.57;;;18.40;95.30;;;;;;4810321;29;20524;-70
2021/07/31 02:23:15;;;;;;;1.63;1.43;;;18.40;95.50;;;;;;4823459;29;20460;-70
2021/07/31 02:25:59;;;;;;;1.47;1.30;;;18.40;95.40;;;;;;4823839;29;20467;-70
2021/07/31 02:29:03;;;;;;;1.70;1.60;;;18.40;95.50;;;;;;4825305;29;20445;-70
2021/07/31 02:31:35;;;;;;;1.87;1.70;;;18.40;95.50;;;;;;4806572;29;20609;-70
2021/07/31 02:34:01;;;;;;;4.70;1.63;;;18.40;95.50;;;;;;4836501;29;20543;-68
2021/07/31 02:36:29;;;;;;;2.60;2.13;;;18.40;95.50;;;;;;4819371;29;20216;-69
2021/07/31 02:39:27;;;;;;;4.73;1.60;;;18.40;95.50;;;;;;4822138;29;20471;-70
2021/07/31 02:41:53;;;;;;;7.10;1.80;;;18.40;95.40;;;;;;4822235;29;20461;-70
2021/07/31 02:44:21;;;;;;;6.50;1.77;;;18.40;95.40;;;;;;4819943;29;20216;-69
2021/07/31 02:46:47;;;;;;;1.57;1.47;;;18.40;95.40;;;;;;4822038;29;20468;-70
2021/07/31 02:49:13;;;;;;;2.00;1.70;;;18.50;95.40;;;;;;4807590;29;20258;-69
2021/07/31 02:51:38;;;;;;;1.50;1.37;;;18.60;95.30;;;;;;4807630;29;20275;-71
2021/07/31 02:54:04;;;;;;;6.63;1.60;;;18.60;95.30;;;;;;4836325;29;20237;-70
2021/07/31 02:56:33;;;;;;;3.00;1.93;;;18.60;95.30;;;;;;4820523;29;20580;-70
2021/07/31 02:59:01;;;;;;;4.70;2.00;;;18.60;95.10;;;;;;4816174;29;20448;-70
2021/07/31 03:01:27;;;;;;;2.50;1.40;;;18.60;95.10;;;;;;4812168;29;21037;-70
2021/07/31 03:03:54;;;;;;;3.93;2.20;;;18.60;95.10;;;;;;4809871;29;20256;-69
2021/07/31 03:06:21;;;;;;;2.17;1.80;;;18.70;95.10;;;;;;4822563;29;20536;-69
2021/07/31 03:08:48;;;;;;;5.27;1.87;;;18.70;95.10;;;;;;4822157;29;20469;-70
2021/07/31 03:11:13;;;;;;;1.67;1.57;;;18.70;95.10;;;;;;4824346;29;20464;-69
2021/07/31 03:13:39;;;;;;;5.13;2.27;;;18.70;95.10;;;;;;4835914;29;20241;-70
2021/07/31 03:16:07;;;;;;;1.77;1.67;;;18.70;95.00;;;;;;4808308;29;20444;-69
2021/07/31 03:18:34;;;;;;;2.10;1.40;;;18.80;95.00;;;;;;4824188;29;20219;-69
2021/07/31 03:21:03;;;;;;;1.33;1.20;;;18.80;94.90;;;;;;4807761;29;20524;-69
2021/07/31 03:23:42;;;;;;;1.50;1.40;;;18.80;94.90;;;;;;4804601;29;20453;-69
2021/07/31 03:26:08;;;;;;;4.90;2.20;;;18.80;94.80;;;;;;4824895;29;20516;-68
2021/07/31 03:28:34;;;;;;;4.60;2.43;;;18.80;94.80;;;;;;4820267;29;20223;-69
2021/07/31 03:31:01;;;;;;;1.90;1.80;;;18.80;94.70;;;;;;4814664;29;20303;-70
2021/07/31 03:33:28;;;;;;;1.87;1.43;;;18.80;94.70;;;;;;4822841;29;20476;-70
2021/07/31 03:35:54;;;;;;;4.03;1.87;;;18.70;94.60;;;;;;4808871;29;20584;-69
2021/07/31 03:38:20;;;;;;;2.17;1.63;;;18.70;94.60;;;;;;4824083;29;20745;-69
2021/07/31 03:40:47;;;;;;;3.07;2.13;;;18.60;94.50;;;;;;4808540;29;20497;-70
2021/07/31 03:43:15;;;;;;;5.83;1.90;;;18.50;94.60;;;;;;4823593;29;20472;-69
2021/07/31 03:45:41;;;;;;;2.03;1.93;;;18.50;94.60;;;;;;4823768;29;20456;-70
2021/07/31 03:48:07;;;;;;;2.17;1.50;;;18.50;94.60;;;;;;4809203;29;20789;-68
2021/07/31 03:50:39;;;;;;;2.33;1.80;;;18.50;94.70;;;;;;4823489;29;20459;-69
2021/07/31 03:53:06;;;;;;;2.60;1.83;;;18.50;94.70;;;;;;4816910;29;20309;-69
2021/07/31 03:55:36;;;;;;;3.10;2.00;;;18.50;94.70;;;;;;4809683;29;20493;-69
2021/07/31 03:58:04;;;;;;;4.27;2.10;;;18.50;94.60;;;;;;4794237;29;20462;-70
2021/07/31 04:00:31;;;;;;;3.23;2.37;;;18.50;94.70;;;;;;4823136;29;20456;-70
2021/07/31 04:03:02;;;;;;;2.50;1.90;;;18.50;94.70;;;;;;4830740;29;20458;-69
2021/07/31 04:05:28;;;;;;;1.80;1.63;;;18.50;94.70;;;;;;4824826;29;20542;-70
2021/07/31 04:08:14;;;;;;;4.00;1.93;;;18.40;94.70;;;;;;4842018;29;20250;-69
2021/07/31 04:11:02;;;;;;;1.70;1.60;;;18.40;94.70;;;;;;4857952;29;20606;-69
2021/07/31 04:13:46;;;;;;;7.97;1.70;;;18.40;94.70;;;;;;4837040;29;20486;-70
2021/07/31 04:16:16;;;;;;;1.97;1.87;;;18.40;94.70;;;;;;4840384;29;20540;-69
2021/07/31 04:18:42;;;;;;;2.07;1.70;;;18.40;94.60;;;;;;4807113;29;20973;-70
2021/07/31 04:21:09;;;;;;;1.80;1.70;;;18.40;94.70;;;;;;4808410;29;20228;-69
2021/07/31 04:23:36;;;;;;;4.50;1.47;;;18.40;94.50;;;;;;4823041;29;20675;-70
2021/07/31 04:26:16;;;;;;;1.70;1.60;;;18.40;94.60;;;;;;4839533;29;20815;-69
2021/07/31 04:28:43;;;;;;;2.40;1.73;;;18.30;94.60;;;;;;4823194;29;20589;-70
2021/07/31 04:31:14;;;;;;;1.70;1.53;;;18.30;94.70;;;;;;4822781;29;20476;-70
2021/07/31 04:33:40;;;;;;;2.37;1.60;;;18.20;94.70;;;;;;4822792;29;20480;-70
2021/07/31 04:36:07;;;;;;;2.43;1.70;;;18.20;94.80;;;;;;4823830;29;20520;-69
2021/07/31 04:38:34;;;;;;;1.57;1.47;;;18.20;94.90;;;;;;4820308;29;20568;-69
2021/07/31 04:41:01;;;;;;;2.60;1.70;;;18.10;94.90;;;;;;4836784;29;20460;-69
2021/07/31 04:43:27;;;;;;;3.23;1.97;;;18.10;95.10;;;;;;4823067;29;20456;-70
2021/07/31 04:45:53;;;;;;;2.27;1.83;;;18.00;95.20;;;;;;4839067;29;20973;-70
2021/07/31 04:48:19;;;;;;;4.40;1.40;;;17.90;95.30;;;;;;4823491;29;20275;-69
2021/07/31 04:50:44;;;;;;;3.47;2.23;;;17.90;95.40;;;;;;4838484;29;20314;-69
2021/07/31 04:53:10;;;;;;;2.90;1.70;;;17.90;95.50;;;;;;4822616;29;20238;-70
2021/07/31 04:55:36;;;;;;;2.83;1.83;;;17.90;95.60;;;;;;4839780;29;20313;-69
2021/07/31 04:58:01;;;;;;;5.00;1.90;;;17.90;95.60;;;;;;4822863;29;20254;-69
2021/07/31 05:00:27;;;;;;;2.67;1.83;;;17.80;95.70;;;;;;4806968;29;20326;-70
2021/07/31 05:02:53;;;;;;;2.30;2.10;;;17.70;95.90;;;;;;4822672;29;20306;-70
2021/07/31 05:05:18;;;;;;;2.50;2.13;;;17.70;95.90;;;;;;4822865;29;20679;-69
2021/07/31 05:07:44;;;;;;;3.60;2.00;;;17.70;96.10;;;;;;4807798;29;20707;-71
2021/07/31 05:10:10;;;;;;;4.13;2.00;;;17.70;96.00;;;;;;4839517;29;20252;-69
2021/07/31 05:12:36;;;;;;;2.37;1.87;;;17.70;96.40;;;;;;4807836;29;20231;-69
2021/07/31 05:15:02;;;;;;;2.10;1.90;;;17.60;96.50;;;;;;4807195;29;20827;-69
2021/07/31 05:17:27;;;;;;;2.40;1.70;;;17.60;96.50;;;;;;4839726;29;20707;-70
2021/07/31 05:19:53;;;;;;;8.10;1.93;;;17.60;96.50;;;;;;4822229;29;20219;-70
2021/07/31 05:22:18;;;;;;;5.93;1.93;;;17.60;96.70;;;;;;4807826;29;20230;-69
2021/07/31 05:24:45;;;;;;;2.60;1.97;;;17.60;96.70;;;;;;4839052;29;20263;-70
2021/07/31 05:27:10;;;;;;;3.73;1.73;;;17.60;96.70;;;;;;4823075;29;20307;-69
2021/07/31 05:29:36;;;;;;;2.43;2.10;;;17.60;96.80;;;;;;4836780;29;20539;-70
2021/07/31 05:32:02;;;;;;;7.73;1.97;;;17.70;96.90;;;;;;4807016;29;20223;-69
2021/07/31 05:34:29;;;;;;;2.90;2.40;;;17.60;96.90;;;;;;4822523;29;20243;-72
2021/07/31 05:36:54;;;;;;;2.13;1.90;;;17.70;97.00;;;;;;4809734;29;20471;-72
2021/07/31 05:39:20;;;;;;;4.97;2.67;;;17.70;97.00;;;;;;4821412;29;20219;-71
2021/07/31 05:41:46;;;;;;;4.83;2.00;;;17.70;97.10;;;;;;4821566;29;20279;-72
2021/07/31 05:44:11;;;;;;;3.50;1.90;;;17.70;96.90;;;;;;4839180;29;20219;-71
2021/07/31 05:46:37;;;;;;;1.87;1.77;;;17.70;97.10;;;;;;4821883;29;20609;-70
2021/07/31 05:49:02;;;;;;;1.80;1.53;;;17.70;97.40;;;;;;4806706;29;20247;-71
2021/07/31 05:51:28;;;;;;;2.80;2.30;;;17.70;97.40;;;;;;4822945;29;20270;-71
2021/07/31 05:53:54;;;;;;;4.23;2.10;;;17.70;97.40;;;;;;4822362;29;20235;-72
2021/07/31 05:56:20;;;;;;;4.40;2.30;;;17.70;97.60;;;;;;4806925;29;20326;-71
2021/07/31 05:58:45;;;;;;;2.83;1.90;;;17.70;97.40;;;;;;4806957;29;20223;-72
2021/07/31 06:01:11;;;;;;;4.40;2.47;;;17.70;97.60;;;;;;4808970;29;20470;-72
2021/07/31 06:03:38;;;;;;;6.37;2.23;;;17.70;97.80;;;;;;4825023;29;20258;-71
2021/07/31 06:06:04;;;;;;;1.87;1.63;;;17.60;97.90;;;;;;4810161;29;20944;-72
2021/07/31 06:08:30;;;;;;;2.70;2.00;;;17.60;98.10;;;;;;4825779;29;20453;-70
2021/07/31 06:11:04;;;;;;;4.90;1.87;;;17.60;98.20;;;;;;4839107;29;20476;-71
2021/07/31 06:13:31;;;;;;;1.93;1.80;;;17.60;98.20;;;;;;4825470;29;20851;-71
2021/07/31 06:15:56;;;;;;;6.33;1.60;;;17.60;98.30;;;;;;4823699;29;20472;-72
2021/07/31 06:18:22;;;;;;;2.50;2.20;;;17.60;98.40;;;;;;4846597;29;20467;-68
2021/07/31 06:20:48;;;;;;;4.37;2.20;;;17.60;98.50;;;;;;4810728;29;20275;-70
2021/07/31 06:23:14;;;;;;;3.17;2.00;;;17.60;98.60;;;;;;4810205;29;20831;-69
2021/07/31 06:25:39;;;;;;;2.10;1.90;;;17.60;98.50;;;;;;4810088;29;20315;-70
2021/07/31 06:28:05;;;;;;;3.97;1.90;;;17.70;98.70;;;;;;4825813;29;20231;-71
2021/07/31 06:30:30;;;;;;;2.67;1.90;;;17.70;98.60;;;;;;4824796;29;20719;-71
2021/07/31 06:32:56;;;;;;;5.70;2.10;;;17.70;98.70;;;;;;4824221;29;20227;-72
2021/07/31 06:35:22;;;;;;;2.20;2.00;;;17.80;98.70;;;;;;4808720;29;20216;-71
2021/07/31 06:37:47;;;;;;;1.90;1.80;;;17.80;98.60;;;;;;4823817;29;20226;-72
2021/07/31 06:40:13;;;;;;;3.40;2.17;;;17.80;98.50;;;;;;4809237;29;20680;-70
2021/07/31 06:42:39;;;;;;;2.40;1.70;;;17.90;98.70;;;;;;4809220;29;20715;-70
2021/07/31 06:45:05;;;;;;;2.30;1.93;;;17.90;98.60;;;;;;4839226;29;20363;-68
2021/07/31 06:47:31;;;;;;;3.63;1.70;;;18.00;98.60;;;;;;4820279;29;20227;-70
2021/07/31 06:49:56;;;;;;;1.93;1.83;;;18.00;98.60;;;;;;4823652;29;20525;-69
2021/07/31 06:52:22;;;;;;;3.07;2.40;;;18.00;98.80;;;;;;4808766;29;20219;-69
2021/07/31 06:54:48;;;;;;;3.47;2.13;;;18.10;98.60;;;;;;4824150;29;20728;-70
2021/07/31 06:57:13;;;;;;;2.50;2.00;;;18.10;98.70;;;;;;4809274;29;20354;-69
2021/07/31 06:59:39;;;;;;;2.40;2.20;;;18.20;98.70;;;;;;4809197;29;20699;-70
2021/07/31 07:02:05;;;;;;;2.00;1.80;;;18.20;98.70;;;;;;4831314;29;20230;-69
2021/07/31 07:04:31;;;;;;;2.70;1.77;;;18.20;98.60;;;;;;4841559;29;20675;-70
2021/07/31 07:06:59;;;;;;;4.00;1.67;;;18.30;98.70;;;;;;4823818;29;20287;-69
2021/07/31 07:09:25;;;;;;;5.53;2.30;;;18.30;98.50;;;;;;4839380;29;20254;-70
2021/07/31 07:11:51;;;;;;;5.90;2.37;;;18.40;98.60;;;;;;4822936;29;20471;-70
2021/07/31 07:14:16;;;;;;;2.20;2.00;;;18.50;98.70;;;;;;4823613;29;20469;-70
2021/07/31 07:16:42;;;;;;;2.90;2.10;;;18.50;98.50;;;;;;4819009;29;20296;-71
2021/07/31 07:19:08;;;;;;;4.23;1.83;;;18.60;98.30;;;;;;4824732;29;20223;-69
2021/07/31 07:21:34;;;;;;;2.17;1.63;;;18.60;98.30;;;;;;4820412;29;20764;-69
2021/07/31 07:23:59;;;;;;;1.90;1.80;;;18.70;98.30;;;;;;4827986;29;20322;-69
2021/07/31 07:26:25;;;;;;;3.23;2.00;;;18.70;98.40;;;;;;4839777;29;20742;-69
2021/07/31 07:28:51;;;;;;;1.93;1.80;;;18.80;98.20;;;;;;4809537;29;20283;-70
2021/07/31 07:31:16;;;;;;;2.30;1.97;;;18.90;98.20;;;;;;4822684;29;20215;-69
2021/07/31 07:33:42;;;;;;;4.50;2.13;;;18.90;98.10;;;;;;4787675;29;1047291;-70
2021/07/31 07:36:16;;;;;;;3.37;2.03;;;19.00;98.10;;;;;;4840381;29;20633;-68
2021/07/31 07:38:43;;;;;;;1.60;1.50;;;19.00;97.80;;;;;;4829126;29;20621;-70
2021/07/31 07:41:11;;;;;;;2.23;2.03;;;19.10;97.80;;;;;;4808897;29;20457;-70
2021/07/31 07:43:37;;;;;;;2.63;1.73;;;19.10;97.70;;;;;;4824254;29;20465;-69
2021/07/31 07:46:03;;;;;;;2.50;1.57;;;19.20;97.80;;;;;;4823423;29;20456;-70
2021/07/31 07:48:29;;;;;;;1.53;1.43;;;19.30;97.80;;;;;;4808122;29;20591;-69
2021/07/31 07:50:55;;;;;;;1.70;1.60;;;19.30;97.60;;;;;;4826182;29;20502;-69
2021/07/31 07:53:20;;;;;;;2.27;2.07;;;19.40;97.60;;;;;;4812491;29;20323;-68
2021/07/31 07:55:46;;;;;;;1.77;1.67;;;19.50;97.60;;;;;;4808057;29;20231;-69
2021/07/31 07:58:12;;;;;;;3.60;2.20;;;19.60;97.60;;;;;;4808259;29;20251;-68
2021/07/31 08:00:38;;;;;;;2.40;2.03;;;19.60;97.60;;;;;;4819588;29;20228;-68
2021/07/31 08:03:07;;;;;;;2.07;1.87;;;19.70;97.80;;;;;;4833472;29;20254;-68
2021/07/31 08:05:33;;;;;;;2.50;2.30;;;19.80;97.50;;;;;;4807580;29;20231;-69
2021/07/31 08:07:58;;;;;;;3.10;2.07;;;19.90;97.40;;;;;;4822713;29;20467;-70
2021/07/31 08:10:24;;;;;;;2.47;1.57;;;20.00;97.50;;;;;;4808462;29;20227;-69
2021/07/31 08:12:50;;;;;;;4.23;1.93;;;20.00;97.50;;;;;;4839236;29;20234;-70
2021/07/31 08:15:15;;;;;;;2.57;2.00;;;20.10;97.50;;;;;;4824104;29;20464;-69
2021/07/31 08:17:41;;;;;;;2.20;2.00;;;20.20;97.60;;;;;;4822635;29;20323;-69
2021/07/31 08:20:07;;;;;;;2.37;2.00;;;20.30;97.20;;;;;;4823820;29;20259;-69
2021/07/31 08:22:33;;;;;;;1.80;1.70;;;20.40;97.30;;;;;;4822959;29;20254;-68
2021/07/31 08:25:00;;;;;;;2.53;2.27;;;20.50;97.10;;;;;;4822259;29;20942;-67
2021/07/31 08:27:26;;;;;;;1.50;1.40;;;20.60;96.60;;;;;;4823446;29;20507;-68
2021/07/31 08:29:51;;;;;;;2.47;1.83;;;20.70;96.40;;;;;;4837071;29;20965;-68
2021/07/31 08:32:17;;;;;;;1.80;1.70;;;20.70;96.30;;;;;;4820788;29;20223;-67
2021/07/31 08:34:43;;;;;;;2.50;1.70;;;20.80;96.40;;;;;;4822985;29;20325;-70
2021/07/31 08:37:10;;;;;;;3.37;1.90;;;20.90;96.50;;;;;;4827362;29;20219;-70
2021/07/31 08:39:39;;;;;;;1.80;1.70;;;21.00;96.60;;;;;;4810501;29;20227;-71
2021/07/31 08:42:06;;;;;;;3.27;2.20;;;21.10;96.40;;;;;;4808126;29;20795;-73
2021/07/31 08:44:36;;;;;;;2.00;1.90;;;21.20;96.20;;;;;;4823245;29;20521;-72
2021/07/31 08:47:03;;;;;;;3.77;2.33;;;21.30;96.10;;;;;;4810001;29;20488;-73
2021/07/31 08:49:30;;;;;;;1.87;1.77;;;21.30;95.60;;;;;;4822210;29;20472;-73
2021/07/31 08:51:58;;;;;;;2.17;1.97;;;21.30;95.40;;;;;;4806361;29;20480;-70
2021/07/31 08:54:24;;;;;;;4.70;2.13;;;21.30;95.50;;;;;;4822103;29;20469;-69
2021/07/31 08:56:50;;;;;;;4.00;2.70;;;21.30;95.30;;;;;;4805617;29;20499;-73
2021/07/31 08:59:16;;;;;;;1.97;1.87;;;21.40;95.40;;;;;;4820999;29;20223;-73
2021/07/31 09:01:43;;;;;;;4.00;2.13;;;21.50;95.50;;;;;;4821889;29;20726;-73
2021/07/31 09:04:18;;;;;;;2.40;2.20;;;21.50;95.20;;;;;;4822763;29;20226;-73
2021/07/31 09:06:47;;;;;;;3.07;2.13;;;21.60;95.10;;;;;;4820860;29;20464;-73
2021/07/31 09:09:13;;;;;;;3.20;2.20;;;21.70;95.00;;;;;;4814371;29;20459;-73
2021/07/31 09:11:55;;;;;;;3.40;1.97;;;21.80;95.00;;;;;;4823140;29;20472;-73
2021/07/31 09:14:21;;;;;;;2.07;1.87;;;21.90;95.10;;;;;;4838785;29;20544;-70
2021/07/31 09:16:47;;;;;;;3.33;2.20;;;22.00;94.80;;;;;;4821080;29;20973;-73
2021/07/31 09:19:14;;;;;;;2.00;1.83;;;22.00;94.90;;;;;;4822983;29;20222;-71
2021/07/31 09:21:41;;;;;;;1.40;1.30;;;22.20;94.50;;;;;;4825283;29;20231;-74
2021/07/31 09:24:15;;;;;;;1.70;1.60;;;22.30;93.40;;;;;;4839051;29;20456;-74
2021/07/31 09:26:51;;;;;;;2.43;2.23;;;22.30;93.30;;;;;;4819969;29;20872;-74
2021/07/31 09:29:19;;;;;;;1.90;1.70;;;22.40;93.30;;;;;;4815171;29;20458;-73
2021/07/31 09:31:45;;;;;;;2.20;1.70;;;22.50;92.90;;;;;;4821238;29;20518;-74
2021/07/31 09:34:22;;;;;;;1.80;1.70;;;22.60;92.80;;;;;;4822301;29;20479;-73
2021/07/31 09:36:48;;;;;;;5.43;1.90;;;22.70;92.70;;;;;;4825257;29;20309;-73
2021/07/31 09:39:14;;;;;;;1.93;1.50;;;22.80;92.30;;;;;;4846924;29;20464;-73
2021/07/31 09:41:41;;;;;;;2.30;2.00;;;22.80;93.00;;;;;;4813464;29;20532;-73
2021/07/31 09:44:10;;;;;;;2.63;1.57;;;22.90;92.60;;;;;;4823044;29;20232;-73
2021/07/31 09:46:37;;;;;;;2.30;1.87;;;23.00;92.60;;;;;;4829661;29;21004;-74
2021/07/31 09:49:04;;;;;;;2.97;1.73;;;23.10;91.80;;;;;;4825039;29;20448;-73
2021/07/31 09:51:44;;;;;;;2.83;1.63;;;23.20;92.00;;;;;;4824803;29;20944;-73
2021/07/31 09:54:12;;;;;;;1.97;1.83;;;23.30;91.40;;;;;;4825776;29;20976;-73
2021/07/31 09:56:45;;;;;;;2.23;1.40;;;23.30;91.60;;;;;;4809198;29;20467;-73
2021/07/31 09:59:12;;;;;;;1.90;1.80;;;23.40;91.10;;;;;;4823878;29;20463;-72
2021/07/31 10:01:45;;;;;;;1.80;1.70;;;23.50;91.40;;;;;;4823220;29;20493;-71
2021/07/31 10:04:11;;;;;;;4.80;1.83;;;23.60;91.00;;;;;;4819313;29;20467;-71
2021/07/31 10:06:37;;;;;;;1.90;1.80;;;23.70;91.00;;;;;;4818679;29;20486;-70
2021/07/31 10:09:05;;;;;;;2.57;1.83;;;23.80;90.70;;;;;;4819377;29;20456;-72
2021/07/31 10:11:36;;;;;;;4.67;2.27;;;23.80;90.60;;;;;;4805089;29;20488;-69
2021/07/31 10:14:03;;;;;;;5.43;1.80;;;23.80;90.70;;;;;;4823453;29;20466;-71
2021/07/31 10:16:30;;;;;;;2.00;1.90;;;23.80;90.70;;;;;;4838160;29;20482;-70
2021/07/31 10:19:05;;;;;;;6.10;2.50;;;23.90;91.00;;;;;;4824685;29;20554;-70
2021/07/31 10:21:34;;;;;;;2.03;1.83;;;24.00;90.80;;;;;;4839432;29;20479;-71
2021/07/31 10:24:07;;;;;;;2.30;2.03;;;24.10;91.00;;;;;;4822456;29;20444;-70
2021/07/31 10:26:35;;;;;;;2.00;1.80;;;24.20;90.60;;;;;;4824765;29;20471;-71
2021/07/31 10:29:29;;;;;;;1.93;1.83;;;24.20;90.40;;;;;;4839849;29;20448;-70
2021/07/31 10:31:55;;;;;;;2.00;1.80;;;24.20;90.40;;;;;;4808359;29;20472;-71
2021/07/31 10:34:53;;;;;;;2.30;2.10;;;24.20;90.40;;;;;;4841086;29;20484;-70
2021/07/31 10:37:28;;;;;;;3.10;1.97;;;24.20;90.40;;;;;;4840506;29;20472;-71
2021/07/31 10:40:07;;;;;;;2.40;2.20;;;24.30;90.60;;;;;;4823655;29;20460;-70
2021/07/31 10:42:51;;;;;;;1.83;1.73;;;24.40;90.50;;;;;;4807736;29;20495;-71
2021/07/31 10:45:17;;;;;;;2.23;2.03;;;24.30;90.10;;;;;;4821124;29;20470;-70
2021/07/31 10:47:44;;;;;;;3.63;2.20;;;24.30;89.40;;;;;;4839172;29;20459;-68
2021/07/31 10:50:25;;;;;;;2.00;1.90;;;24.40;90.00;;;;;;4824312;29;20499;-69
2021/07/31 10:52:55;;;;;;;2.50;2.30;;;24.40;89.70;;;;;;4838096;29;20519;-69
2021/07/31 10:55:22;;;;;;;2.63;2.47;;;24.50;90.10;;;;;;4809285;29;21040;-68
2021/07/31 10:58:13;;;;;;;2.13;1.70;;;24.50;90.20;;;;;;4824120;29;20460;-69
2021/07/31 11:00:52;;;;;;;3.47;3.17;;;24.60;90.00;;;;;;4808485;29;20992;-69
2021/07/31 11:03:20;;;;;;;2.30;2.10;;;24.70;89.30;;;;;;4819712;29;20487;-67
2021/07/31 11:05:49;;;;;;;2.13;2.00;;;24.80;89.80;;;;;;4831634;29;20452;-69
2021/07/31 11:08:15;;;;;;;2.67;1.90;;;24.90;90.10;;;;;;4823546;29;20962;-69
2021/07/31 11:10:42;;;;;;;2.57;2.13;;;24.90;90.10;;;;;;4807252;29;20516;-69
2021/07/31 11:13:12;;;;;;;2.10;2.00;;;25.00;90.00;;;;;;4820993;29;20483;-69
2021/07/31 11:15:56;;;;;;;2.10;2.00;;;25.00;89.10;;;;;;4821692;29;20464;-68
2021/07/31 11:18:37;;;;;;;3.53;2.30;;;25.00;89.40;;;;;;4822306;29;20464;-69
2021/07/31 11:21:13;;;;;;;2.00;1.90;;;25.00;89.70;;;;;;4809813;29;20448;-69
2021/07/31 11:23:43;;;;;;;3.10;1.93;;;25.10;89.60;;;;;;4840026;29;20463;-68
2021/07/31 11:26:09;;;;;;;4.83;2.83;;;25.20;89.80;;;;;;4839874;29;20468;-70
2021/07/31 11:28:38;;;;;;;2.63;1.90;;;25.20;89.20;;;;;;4822954;29;20540;-69
2021/07/31 11:31:17;;;;;;;2.80;2.60;;;25.30;89.40;;;;;;4807517;29;20456;-69
2021/07/31 11:34:01;;;;;;;5.90;2.23;;;25.30;89.10;;;;;;4826478;29;20479;-69
2021/07/31 11:36:30;;;;;;;2.10;1.90;;;25.50;88.20;;;;;;4850848;29;21151;-68
2021/07/31 11:38:56;;;;;;;1.87;1.77;;;25.60;87.20;;;;;;4838920;29;20471;-68
2021/07/31 11:41:22;;;;;;;2.50;2.27;;;25.50;87.20;;;;;;4807610;29;20543;-69
2021/07/31 11:43:53;;;;;;;2.73;2.20;;;25.50;87.70;;;;;;4806766;29;20339;-69
2021/07/31 11:46:33;;;;;;;2.00;1.90;;;25.60;86.80;;;;;;4823623;29;20463;-69
2021/07/31 11:49:04;;;;;;;1.80;1.70;;;25.40;85.90;;;;;;4808040;29;20479;-69
2021/07/31 11:51:31;;;;;;;2.33;2.20;;;25.40;86.60;;;;;;4807878;29;20463;-68
2021/07/31 11:54:05;;;;;;;1.97;1.87;;;25.30;86.70;;;;;;4839623;29;20569;-69
2021/07/31 11:56:31;;;;;;;3.37;2.20;;;25.40;87.60;;;;;;4822522;29;20474;-69
2021/07/31 11:58:57;;;;;;;1.80;1.70;;;25.30;87.50;;;;;;4838157;29;21039;-69
2021/07/31 12:01:22;;;;;;;2.10;2.00;;;25.30;87.50;;;;;;4823472;29;20621;-69
2021/07/31 12:03:55;;;;;;;2.70;2.20;;;25.30;88.30;;;;;;4830232;29;20279;-69
2021/07/31 12:06:41;;;;;;;2.17;1.97;;;25.40;88.90;;;;;;4811738;29;20305;-68
2021/07/31 12:09:27;;;;;;;1.93;1.83;;;25.60;87.50;;;;;;4819274;29;20469;-69
2021/07/31 12:11:56;;;;;;;2.97;2.70;;;25.80;86.80;;;;;;4825457;29;20473;-69
2021/07/31 12:14:40;;;;;;;3.70;2.20;;;25.90;85.40;;;;;;4822277;29;20555;-68
2021/07/31 12:17:24;;;;;;;2.10;2.00;;;25.90;85.80;;;;;;4838436;29;20464;-69
2021/07/31 12:19:55;;;;;;;3.90;2.30;;;25.90;86.40;;;;;;4806615;29;20478;-68
2021/07/31 12:22:26;;;;;;;1.97;1.87;;;25.80;84.40;;;;;;4807262;29;21125;-68
2021/07/31 12:25:15;;;;;;;2.37;2.27;;;25.70;83.90;;;;;;4804907;29;20528;-70
2021/07/31 12:28:22;;;;;;;2.60;2.07;;;25.70;84.50;;;;;;4823159;29;20468;-69
2021/07/31 12:30:48;;;;;;;2.40;2.20;;;25.70;84.90;;;;;;4818877;29;20525;-68
2021/07/31 12:33:13;;;;;;;1.90;1.80;;;25.70;84.00;;;;;;4807199;29;20908;-68
2021/07/31 12:35:47;;;;;;;6.70;2.03;;;25.70;83.20;;;;;;4807020;29;20230;-69
2021/07/31 12:38:17;;;;;;;1.80;1.70;;;25.70;82.70;;;;;;4837108;29;20294;-70
2021/07/31 12:40:43;;;;;;;2.10;1.90;;;25.70;83.10;;;;;;4806996;29;20963;-72
2021/07/31 12:43:13;;;;;;;2.10;1.90;;;25.70;82.00;;;;;;4822043;29;20532;-72
2021/07/31 12:45:41;;;;;;;1.80;1.70;;;25.60;81.70;;;;;;4806102;29;20721;-71
2021/07/31 12:48:07;;;;;;;1.83;1.73;;;25.60;82.20;;;;;;4828218;29;20463;-68
2021/07/31 12:50:33;;;;;;;2.10;2.00;;;25.50;82.10;;;;;;4833649;29;20474;-68
2021/07/31 12:53:00;;;;;;;1.80;1.70;;;25.50;82.50;;;;;;4836932;29;20246;-69
2021/07/31 12:55:26;;;;;;;6.07;2.07;;;25.50;83.00;;;;;;4817475;29;20318;-69